Aérodrome :







RETROUVEZ-NOUS SUR...

 
LOGIN :

S'inscrire | Disclaimer

   EN    FR    IT 

 









Légende :    VFR   VFR Marginal   IFR   IFR Intensif   IFR Très Intensif
Visi : 
Plafond : 
>= 8 km
>= 3000ft
5 à 8 km
1000 à 3000 ft
1500m à 5 km
500 à 1000 ft
800 à 1500m
200 à 500 ft
< 800m
< 200 ft
Symboles :   Orages  Brouillard  Fortes neiges  Fortes précipitations  Vent > 20 kt






- Altitude de l'aérodrome : 534 ft
- Code IATA : PQI


KPQI - Northern Maine Regional Arpt At Presque Isle

DERNIER METAR :
  • 131456Z AUTO 28014G20KT 9SM -SN SCT026 OVC035 M07/M11 A2980 RMK AO2 SLP130 P0000 60000 T10721111 51029

METARs EXPIRÉS :
  • 131356Z AUTO 26010KT 9SM -SN FEW024 OVC045 M08/M12 A2977 RMK AO2 SLP119 P0000 T10831122
  • 131256Z AUTO 26012G19KT 9SM -SN OVC045 M09/M13 A2975 RMK AO2 SLP111 P0000 T10941128

TAF KPQI
Valide du 13 à 12h jusqu'au 14 à 12h UTC


131120Z 1312/1412 27014G22KT P6SM BKN050 OVC080
FM131400 30015G25KT P6SM BKN035
FM131600 30018G30KT 6SM BLSN VCSH BKN035
FM132100 30012G20KT P6SM SCT040
FM140000 29006KT P6SM SKC



MET'MAP, la Météo Aéronautique d'un coup d'oeil ! - Copyright ORBIFLY Décembre 2007 - Disclaimer

ORBIFLY MET'MAP TEAM :

Programmation & Développement : Alexandra Zaïnal
Conception & Développement : Baudouin d'Aumeries
Co-Programmation & Développement : Marc-Olivier Méhu
Soutien technique & logistique : Manuel Goepfert

Contact : metmap@orbifly.com




SOURCES & CREDITS :

   NOAA